KTIK/TIK METAR and TAF weather

Enter ICAO airport designator
Station Type Date Time Source
KTIK METAR 2022/01/26 18:56 UTC NOAA

KTIK 261856Z AUTO 15005KT 10SM FEW090 02/M15 A3032 RMK AO2 SLP287 T00201146


Station Type Date Time Source
KTIK Decoded METAR 2022/01/26 18:56 UTC NOAA

Tinker Air Force Base, OK, United States (KTIK) 35-25N 097-23W 397M
Jan 26, 2022 - 01:56 PM EST / 2022.01.26 1856 UTC
Wind: from the SSE (150 degrees) at 6 MPH (5 KT):0
Visibility: 10 mile(s):0
Sky conditions: mostly clear
Temperature: 35.6 F (2.0 C)
Dew Point: 5.7 F (-14.6 C)
Relative Humidity: 28%
Pressure (altimeter): 30.32 in. Hg (1026 hPa)
ob: KTIK 261856Z AUTO 15005KT 10SM FEW090 02/M15 A3032 RMK AO2 SLP287 T00201146
cycle: 19

Station Type Date Time Source
KTIK TAF 2022/01/26 18:06 UTC NOAA

TAF KTIK 261800Z 2618/2724 11007KT 9999 BKN060 QNH3030INS
BECMG 2621/2622 22007KT 8000 -SN BKN020 OVC040 QNH3024INS
BECMG 2703/2704 20009KT 9999 NSW OVC035 QNH3019INS
BECMG 2714/2715 25009KT 9999 SCT250 QNH3023INS
BECMG 2719/2720 32009KT 9999 SKC QNH3024INS TX04/2718Z TNM04/2712Z

Example: see airport list